Emmaus, Pennsylvania
Current Conditions -  °F | °C
As of 7:15 PM on Friday 21 Nov 2014 (Local Time) from KXLL Reporting Station
Clear Clear  
Wind Chill: 30°   Ceiling: Unl
Heat Index: 30°   Visibility: 10mi
Dew Point: 10°   Wind: 3mph
Humidity: 44%   Direction: 250°WSW
Pressure: 30.49"   Gusts: NA
Location:  40.54°N, 75.49°W
Report Text: KXLL 220015Z AUTO 25003KT 10SM CLR M01/M12 A3049 RMK AO2
Loading
Personal Weather Stations






























Interactive Weather Map New forecast layout! Learn more

10-Day Weather Forecast

Advertisements
Track Severe Weather on mobile